createdAt,value
2018-10-02T00:02:00.391Z,9.20
2018-10-02T00:04:29.767Z,9.47
2018-10-02T00:06:59.064Z,6.20
2018-10-02T00:09:28.345Z,11.47
2018-10-02T00:12:03.012Z,14.57
2018-10-02T00:14:32.564Z,11.97
2018-10-02T00:17:01.802Z,15.87
2018-10-02T00:19:31.641Z,13.73
2018-10-02T00:22:00.925Z,13.93
2018-10-02T00:24:30.271Z,9.13
2018-10-02T00:26:59.666Z,10.93
2018-10-02T00:29:29.003Z,8.53
2018-10-02T00:31:58.507Z,12.37
2018-10-02T00:34:27.793Z,9.97
2018-10-02T00:36:57.667Z,13.40
2018-10-02T00:39:27.041Z,10.23
2018-10-02T00:42:02.338Z,8.80
2018-10-02T00:44:31.664Z,13.07
2018-10-02T00:47:00.932Z,12.00
2018-10-02T00:49:30.272Z,14.27
2018-10-02T00:51:59.600Z,8.63
2018-10-02T00:54:28.844Z,11.13
2018-10-02T00:56:58.981Z,10.47
2018-10-02T00:59:28.275Z,10.53
2018-10-02T01:01:57.580Z,8.53
2018-10-02T01:04:26.843Z,16.10
2018-10-02T01:06:56.270Z,8.60
2018-10-02T01:09:25.628Z,8.33
2018-10-02T01:11:55.023Z,13.60
2018-10-02T01:14:24.365Z,8.57
2018-10-02T01:16:53.690Z,9.97
2018-10-02T01:19:23.013Z,14.30
2018-10-02T01:21:52.401Z,12.07
2018-10-02T01:24:21.751Z,8.10
2018-10-02T01:26:51.051Z,9.40
2018-10-02T01:29:20.315Z,8.50
2018-10-02T01:31:49.690Z,14.90
2018-10-02T01:34:19.050Z,14.53
2018-10-02T01:36:48.380Z,14.00
2018-10-02T01:39:17.703Z,8.77
2018-10-02T01:41:46.988Z,9.60
2018-10-02T01:44:16.319Z,10.70
2018-10-02T01:46:45.609Z,8.00
2018-10-02T01:49:14.896Z,11.00
2018-10-02T01:51:44.562Z,10.73
2018-10-02T01:54:13.909Z,10.63
2018-10-02T01:56:43.416Z,7.10
2018-10-02T01:59:12.752Z,8.20
2018-10-02T02:01:42.075Z,12.00
2018-10-02T02:04:11.618Z,11.73
2018-10-02T02:06:40.871Z,8.07
2018-10-02T02:09:10.276Z,11.63
2018-10-02T02:11:40.604Z,9.60
2018-10-02T02:14:09.944Z,8.67
2018-10-02T02:16:39.314Z,11.13
2018-10-02T02:19:08.657Z,10.83
2018-10-02T02:21:37.924Z,7.63
2018-10-02T02:24:07.267Z,9.23
2018-10-02T02:26:36.587Z,8.70
2018-10-02T02:29:05.903Z,12.63
2018-10-02T02:31:35.192Z,10.70
2018-10-02T02:34:04.464Z,15.13
2018-10-02T02:36:33.821Z,9.53
2018-10-02T02:39:03.195Z,12.17
2018-10-02T02:41:32.470Z,10.83
2018-10-02T02:44:01.733Z,9.10
2018-10-02T02:46:32.021Z,8.80
2018-10-02T02:49:06.397Z,11.07
2018-10-02T02:51:35.718Z,8.23
2018-10-02T02:54:05.042Z,12.43
2018-10-02T02:56:34.328Z,13.03
2018-10-02T02:59:03.607Z,10.73
2018-10-02T03:01:33.007Z,10.37
2018-10-02T03:04:02.283Z,12.90
2018-10-02T03:06:31.648Z,13.93
2018-10-02T03:09:00.885Z,12.13
2018-10-02T03:11:30.159Z,18.20
2018-10-02T03:13:59.519Z,14.00
2018-10-02T03:16:28.777Z,13.90
2018-10-02T03:18:58.123Z,15.30
2018-10-02T03:21:27.434Z,22.33
2018-10-02T03:23:56.941Z,13.80
2018-10-02T03:26:26.216Z,15.17
2018-10-02T03:28:55.531Z,14.00
2018-10-02T03:31:24.895Z,14.17
2018-10-02T03:33:54.240Z,14.43
2018-10-02T03:36:23.530Z,15.13
2018-10-02T03:38:52.846Z,12.37
2018-10-02T03:41:22.135Z,18.00
2018-10-02T03:43:51.398Z,14.20
2018-10-02T03:46:20.722Z,15.60
2018-10-02T03:48:50.147Z,14.57
2018-10-02T03:51:19.445Z,16.10
2018-10-02T03:53:48.914Z,16.73
2018-10-02T03:56:18.200Z,9.67
2018-10-02T03:58:47.570Z,9.77
2018-10-02T04:01:16.944Z,12.93
2018-10-02T04:03:46.281Z,14.07
2018-10-02T04:06:15.537Z,10.27
2018-10-02T04:08:44.885Z,10.43
2018-10-02T04:11:14.212Z,11.20
2018-10-02T04:13:43.562Z,11.07
2018-10-02T04:16:13.002Z,8.93
2018-10-02T04:18:42.363Z,9.03
2018-10-02T04:21:11.674Z,11.63
2018-10-02T04:23:40.960Z,11.53
2018-10-02T04:26:10.713Z,11.13
2018-10-02T04:28:40.009Z,12.03
2018-10-02T04:31:09.728Z,9.23
2018-10-02T04:33:39.193Z,10.83
2018-10-02T04:36:08.503Z,5.83
2018-10-02T04:38:40.124Z,7.50
2018-10-02T04:41:09.538Z,11.50
2018-10-02T04:43:38.831Z,10.37
2018-10-02T04:46:08.155Z,9.97
2018-10-02T04:48:37.549Z,15.30
2018-10-02T04:51:06.951Z,11.97
2018-10-02T04:53:36.221Z,7.03
2018-10-02T04:56:05.652Z,11.10
2018-10-02T04:58:34.947Z,16.13
2018-10-02T05:01:04.215Z,9.63
2018-10-02T05:03:33.607Z,10.37
2018-10-02T05:06:03.122Z,8.63
2018-10-02T05:08:32.449Z,12.67
2018-10-02T05:11:01.749Z,10.77
2018-10-02T05:13:31.033Z,10.40
2018-10-02T05:16:03.210Z,12.73
2018-10-02T05:18:32.447Z,13.60
2018-10-02T05:21:01.772Z,11.17
2018-10-02T05:23:31.057Z,14.00
2018-10-02T05:26:00.351Z,16.70
2018-10-02T05:28:29.637Z,12.83
2018-10-02T05:30:58.917Z,13.63
2018-10-02T05:33:28.224Z,16.33
2018-10-02T05:35:57.577Z,15.17
2018-10-02T05:38:27.524Z,15.17
2018-10-02T05:40:57.071Z,15.17
2018-10-02T05:43:26.609Z,13.50
2018-10-02T05:45:55.922Z,16.33
2018-10-02T05:48:25.270Z,12.90
2018-10-02T05:50:54.600Z,18.20
2018-10-02T05:53:23.958Z,15.60
2018-10-02T05:55:53.407Z,20.13
2018-10-02T05:58:22.754Z,21.37
2018-10-02T06:00:52.221Z,18.87
2018-10-02T06:03:21.759Z,18.07
2018-10-02T06:05:51.028Z,15.70
2018-10-02T06:08:20.439Z,20.10
2018-10-02T06:10:49.777Z,19.23
2018-10-02T06:13:19.109Z,17.00
2018-10-02T06:15:48.458Z,18.93
2018-10-02T06:18:17.798Z,18.87
2018-10-02T06:20:47.137Z,19.53
2018-10-02T06:23:19.559Z,20.53
2018-10-02T06:25:48.869Z,16.63
2018-10-02T06:28:18.209Z,20.33
2018-10-02T06:30:48.125Z,17.47
2018-10-02T06:33:17.444Z,16.37
2018-10-02T06:35:46.804Z,15.30
2018-10-02T06:38:16.290Z,15.83
2018-10-02T06:40:45.450Z,16.70
2018-10-02T06:43:14.790Z,22.03
2018-10-02T06:45:44.125Z,19.33
2018-10-02T06:48:13.447Z,15.27
2018-10-02T06:50:42.801Z,18.07
2018-10-02T06:53:12.111Z,20.87
2018-10-02T06:55:41.406Z,18.67
2018-10-02T06:58:10.819Z,16.53
2018-10-02T07:00:40.238Z,15.33
2018-10-02T07:03:09.597Z,19.73
2018-10-02T07:05:39.056Z,21.90
2018-10-02T07:08:08.317Z,14.90
2018-10-02T07:10:37.590Z,19.50
2018-10-02T07:13:07.254Z,18.17
2018-10-02T07:15:36.542Z,17.73
2018-10-02T07:18:07.983Z,18.40
2018-10-02T07:20:37.871Z,16.67
2018-10-02T07:23:07.419Z,17.67
2018-10-02T07:25:36.874Z,20.97
2018-10-02T07:28:07.053Z,22.97
2018-10-02T07:30:36.340Z,18.07
2018-10-02T07:33:05.722Z,21.47
2018-10-02T07:35:35.047Z,17.07
2018-10-02T07:38:04.343Z,18.00
2018-10-02T07:40:33.669Z,20.37
2018-10-02T07:43:03.033Z,16.87
2018-10-02T07:45:32.586Z,19.60
2018-10-02T07:48:03.052Z,15.00
2018-10-02T07:50:36.588Z,16.87
2018-10-02T07:53:06.027Z,14.67
2018-10-02T07:55:36.373Z,19.00
2018-10-02T07:58:05.724Z,19.10
2018-10-02T08:00:37.009Z,24.93
2018-10-02T08:03:06.458Z,25.33
2018-10-02T08:05:36.929Z,23.13
2018-10-02T08:08:06.246Z,17.70
2018-10-02T08:10:35.579Z,20.43
2018-10-02T08:13:04.888Z,19.03
2018-10-02T08:15:34.172Z,25.03
2018-10-02T08:18:03.512Z,16.73
2018-10-02T08:20:33.054Z,16.90
2018-10-02T08:23:02.259Z,18.77
2018-10-02T08:25:31.562Z,18.50
2018-10-02T08:28:01.959Z,18.13
2018-10-02T08:30:31.277Z,22.83
2018-10-02T08:33:00.559Z,17.43
2018-10-02T08:35:29.895Z,18.57
2018-10-02T08:37:59.474Z,21.63
2018-10-02T08:40:28.869Z,24.67
2018-10-02T08:42:58.185Z,18.47
2018-10-02T08:45:27.605Z,19.90
2018-10-02T08:47:56.965Z,15.40
2018-10-02T08:50:26.309Z,21.23
2018-10-02T08:52:55.623Z,15.30
2018-10-02T08:55:24.968Z,18.90
2018-10-02T08:57:54.241Z,18.87
2018-10-02T09:00:23.581Z,22.37
2018-10-02T09:02:54.991Z,17.00
2018-10-02T09:05:24.307Z,20.10
2018-10-02T09:07:53.959Z,14.40
2018-10-02T09:10:23.321Z,11.77
2018-10-02T09:12:52.859Z,22.33
2018-10-02T09:15:22.287Z,14.53
2018-10-02T09:17:51.570Z,14.10
2018-10-02T09:20:20.935Z,14.33
2018-10-02T09:22:53.393Z,13.10
2018-10-02T09:25:22.783Z,14.60
2018-10-02T09:27:52.073Z,14.23
2018-10-02T09:30:26.573Z,14.03
2018-10-02T09:33:01.135Z,15.67
2018-10-02T09:35:35.709Z,13.93
2018-10-02T09:38:10.195Z,15.03
2018-10-02T09:40:44.908Z,14.00
2018-10-02T09:43:19.463Z,17.47
2018-10-02T09:45:48.867Z,12.53
2018-10-02T09:48:18.406Z,14.77
2018-10-02T09:50:48.127Z,19.57
2018-10-02T09:53:17.588Z,17.17
2018-10-02T09:55:46.923Z,18.87
2018-10-02T09:58:16.226Z,18.40
2018-10-02T10:00:50.781Z,21.57
2018-10-02T10:03:20.210Z,16.87
2018-10-02T10:05:49.445Z,20.93
2018-10-02T10:08:18.909Z,22.30
2018-10-02T10:10:48.212Z,19.73
2018-10-02T10:13:17.635Z,18.33
2018-10-02T10:15:47.985Z,17.67
2018-10-02T10:18:17.564Z,16.77
2018-10-02T10:20:46.797Z,18.37
2018-10-02T10:23:16.277Z,21.70
2018-10-02T10:25:45.725Z,15.53
2018-10-02T10:28:15.064Z,20.03
2018-10-02T10:30:44.338Z,18.67
2018-10-02T10:33:13.688Z,14.93
2018-10-02T10:35:42.950Z,18.43
2018-10-02T10:38:12.375Z,20.40
2018-10-02T10:40:42.141Z,19.57
2018-10-02T10:43:11.359Z,19.13
2018-10-02T10:45:40.675Z,22.93
2018-10-02T10:48:10.073Z,19.47
2018-10-02T10:50:43.501Z,21.10
2018-10-02T10:53:12.901Z,20.53
2018-10-02T10:55:42.181Z,20.07
2018-10-02T10:58:11.501Z,18.97
2018-10-02T11:00:40.803Z,22.43
2018-10-02T11:03:10.118Z,16.03
2018-10-02T11:05:39.387Z,18.83
2018-10-02T11:08:08.685Z,24.47
2018-10-02T11:10:38.020Z,19.80
2018-10-02T11:13:07.322Z,20.37
2018-10-02T11:15:38.131Z,22.30
2018-10-02T11:18:07.389Z,17.50
2018-10-02T11:20:37.939Z,16.67
2018-10-02T11:23:07.721Z,18.03
2018-10-02T11:25:37.023Z,17.67
2018-10-02T11:28:06.497Z,21.20
2018-10-02T11:30:35.823Z,16.70
2018-10-02T11:33:05.327Z,18.20
2018-10-02T11:35:34.864Z,17.07
2018-10-02T11:38:04.017Z,16.97
2018-10-02T11:40:33.239Z,15.70
2018-10-02T11:43:02.534Z,15.63
2018-10-02T11:45:31.872Z,15.33
2018-10-02T11:48:01.158Z,15.40
2018-10-02T11:50:30.566Z,18.47
2018-10-02T11:52:59.913Z,16.77
2018-10-02T11:55:29.139Z,17.30
2018-10-02T11:57:58.497Z,14.83
2018-10-02T12:00:27.956Z,15.13
2018-10-02T12:02:57.228Z,13.13
2018-10-02T12:05:26.572Z,14.30
2018-10-02T12:07:57.906Z,15.30
2018-10-02T12:10:27.372Z,15.97
2018-10-02T12:12:56.970Z,16.20
2018-10-02T12:15:26.380Z,14.37
2018-10-02T12:18:00.117Z,16.73
2018-10-02T12:20:29.608Z,13.37
2018-10-02T12:22:59.099Z,17.57
2018-10-02T12:25:32.681Z,13.87
2018-10-02T12:28:02.156Z,14.53
2018-10-02T12:30:31.648Z,11.97
2018-10-02T12:33:01.214Z,12.97
2018-10-02T12:35:30.725Z,11.70
2018-10-02T12:38:00.028Z,14.43
2018-10-02T12:40:29.447Z,12.87
2018-10-02T12:42:58.829Z,11.50
2018-10-02T12:45:28.108Z,14.07
2018-10-02T12:47:57.634Z,11.73
2018-10-02T12:50:27.021Z,10.57
2018-10-02T12:52:56.526Z,8.80
2018-10-02T12:55:26.385Z,9.10
2018-10-02T12:57:55.829Z,8.47
2018-10-02T13:00:25.987Z,10.93
2018-10-02T13:02:55.305Z,8.63
2018-10-02T13:05:28.487Z,8.57
2018-10-02T13:07:57.860Z,7.53
2018-10-02T13:10:29.213Z,6.70
2018-10-02T13:12:58.642Z,6.73
2018-10-02T13:15:27.954Z,6.10
2018-10-02T13:17:57.227Z,6.43
2018-10-02T13:20:26.551Z,6.77
2018-10-02T13:22:55.878Z,5.53
2018-10-02T13:25:25.287Z,6.77
2018-10-02T13:27:54.635Z,6.80
2018-10-02T13:30:23.918Z,7.73
2018-10-02T13:32:53.343Z,9.07
2018-10-02T13:35:22.733Z,8.90
2018-10-02T13:37:52.180Z,10.27
2018-10-02T13:40:22.772Z,9.83
2018-10-02T13:42:52.073Z,10.60
2018-10-02T13:45:21.382Z,10.17
2018-10-02T13:47:50.700Z,11.27
2018-10-02T13:50:20.037Z,11.83
2018-10-02T13:52:49.373Z,11.77
2018-10-02T13:55:18.817Z,14.70
2018-10-02T13:57:48.444Z,12.20
2018-10-02T14:00:17.719Z,11.57
2018-10-02T14:02:47.050Z,14.63
2018-10-02T14:05:16.437Z,13.37
2018-10-02T14:07:45.835Z,14.37
2018-10-02T14:10:15.343Z,14.90
2018-10-02T14:12:44.713Z,14.00
2018-10-02T14:15:14.122Z,12.47
2018-10-02T14:17:43.427Z,13.53
2018-10-02T14:20:12.758Z,13.83
2018-10-02T14:22:42.063Z,15.77
2018-10-02T14:25:11.467Z,20.33
2018-10-02T14:27:40.759Z,14.80
2018-10-02T14:30:10.049Z,12.23
2018-10-02T14:32:39.357Z,13.87
2018-10-02T14:35:09.761Z,16.93
2018-10-02T14:37:39.075Z,17.30
2018-10-02T14:40:08.405Z,12.63
2018-10-02T14:42:38.756Z,13.93
2018-10-02T14:45:08.145Z,15.20
2018-10-02T14:47:37.464Z,12.77
2018-10-02T14:50:06.923Z,13.63
2018-10-02T14:52:36.248Z,13.33
2018-10-02T14:55:05.679Z,12.03
2018-10-02T14:57:34.929Z,16.10
2018-10-02T15:00:04.655Z,14.47
2018-10-02T15:02:33.956Z,12.60
2018-10-02T15:05:03.229Z,12.20
2018-10-02T15:07:33.680Z,11.97
2018-10-02T15:10:03.089Z,11.33
2018-10-02T15:12:32.389Z,12.30
2018-10-02T15:15:02.103Z,11.40
2018-10-02T15:17:31.440Z,13.97
2018-10-02T15:20:00.710Z,11.23
2018-10-02T15:22:30.556Z,13.33
2018-10-02T15:24:59.967Z,15.40
2018-10-02T15:27:29.393Z,10.20
2018-10-02T15:29:58.862Z,10.37
2018-10-02T15:32:28.160Z,12.27
2018-10-02T15:34:57.572Z,12.97
2018-10-02T15:37:27.994Z,12.87
2018-10-02T15:39:57.777Z,14.13
2018-10-02T15:42:27.116Z,11.93
2018-10-02T15:44:56.416Z,17.20
2018-10-02T15:47:25.804Z,15.43
2018-10-02T15:49:55.160Z,10.47
2018-10-02T15:52:31.101Z,13.27
2018-10-02T15:55:00.378Z,15.40
2018-10-02T15:57:29.670Z,17.47
2018-10-02T15:59:58.981Z,21.07
2018-10-02T16:02:28.204Z,13.97
2018-10-02T16:04:57.532Z,13.90
2018-10-02T16:07:26.789Z,13.00
2018-10-02T16:09:56.040Z,14.93
2018-10-02T16:12:25.299Z,18.13
2018-10-02T16:14:54.575Z,11.50
2018-10-02T16:17:23.834Z,14.23
2018-10-02T16:19:53.170Z,15.00
2018-10-02T16:22:22.449Z,14.77
2018-10-02T16:24:51.920Z,14.53
2018-10-02T16:27:21.174Z,13.00
2018-10-02T16:29:50.481Z,9.60
2018-10-02T16:32:19.784Z,14.33
2018-10-02T16:34:49.294Z,12.33
2018-10-02T16:37:18.373Z,13.03
2018-10-02T16:39:47.680Z,9.83
2018-10-02T16:42:16.975Z,14.53
2018-10-02T16:44:46.276Z,12.07
2018-10-02T16:47:15.836Z,10.33
2018-10-02T16:49:45.049Z,11.63
2018-10-02T16:52:14.324Z,15.93
2018-10-02T16:54:43.638Z,13.20
2018-10-02T16:57:13.104Z,12.70
2018-10-02T16:59:42.316Z,11.97
2018-10-02T17:02:11.607Z,14.83
2018-10-02T17:04:40.924Z,12.00
2018-10-02T17:07:10.269Z,12.60
2018-10-02T17:09:39.613Z,15.60
2018-10-02T17:12:08.912Z,13.00
2018-10-02T17:14:38.261Z,12.03
2018-10-02T17:17:07.576Z,14.53
2018-10-02T17:19:36.850Z,12.13
2018-10-02T17:22:06.193Z,13.13
2018-10-02T17:24:35.607Z,11.37
2018-10-02T17:27:05.033Z,13.00
2018-10-02T17:29:34.358Z,12.87
2018-10-02T17:32:03.680Z,14.23
2018-10-02T17:34:32.999Z,13.40
2018-10-02T17:37:02.374Z,11.90
2018-10-02T17:39:31.657Z,14.90
2018-10-02T17:42:00.975Z,14.97
2018-10-02T17:44:30.310Z,10.90
2018-10-02T17:46:59.666Z,10.57
2018-10-02T17:49:29.072Z,10.73
2018-10-02T17:51:58.956Z,12.20
2018-10-02T17:54:28.318Z,11.47
2018-10-02T17:56:57.735Z,14.90
2018-10-02T17:59:27.032Z,10.70
2018-10-02T18:01:56.355Z,13.87
2018-10-02T18:04:25.610Z,15.17
2018-10-02T18:06:54.952Z,12.13
2018-10-02T18:09:24.351Z,14.87
2018-10-02T18:11:53.720Z,14.23
2018-10-02T18:14:23.060Z,15.90
2018-10-02T18:16:52.340Z,13.43
2018-10-02T18:19:21.825Z,14.37
2018-10-02T18:21:51.062Z,8.57
2018-10-02T18:24:21.454Z,11.57
2018-10-02T18:26:50.741Z,14.03
2018-10-02T18:29:20.033Z,11.60
2018-10-02T18:31:49.557Z,10.77
2018-10-02T18:34:18.831Z,15.90
2018-10-02T18:36:48.093Z,16.60
2018-10-02T18:39:17.465Z,15.23
2018-10-02T18:41:47.800Z,14.93
2018-10-02T18:44:17.106Z,16.53
2018-10-02T18:46:46.386Z,16.20
2018-10-02T18:49:15.717Z,20.60
2018-10-02T18:51:45.046Z,15.80
2018-10-02T18:54:14.401Z,11.57
2018-10-02T18:56:45.570Z,15.90
2018-10-02T18:59:14.904Z,17.50
2018-10-02T19:01:44.225Z,14.50
2018-10-02T19:04:13.598Z,15.17
2018-10-02T19:06:43.059Z,14.97
2018-10-02T19:09:12.815Z,13.83
2018-10-02T19:11:47.417Z,13.93
2018-10-02T19:14:17.649Z,10.63
2018-10-02T19:16:47.164Z,13.50
2018-10-02T19:19:21.584Z,14.93
2018-10-02T19:21:50.868Z,15.30
2018-10-02T19:24:20.147Z,13.40
2018-10-02T19:26:49.562Z,14.37
2018-10-02T19:29:18.801Z,14.73
2018-10-02T19:31:53.438Z,16.03
2018-10-02T19:34:23.126Z,15.70
2018-10-02T19:36:52.559Z,17.67
2018-10-02T19:39:23.505Z,15.97
2018-10-02T19:41:53.046Z,14.43
2018-10-02T19:44:22.416Z,16.20
2018-10-02T19:46:58.125Z,13.47
2018-10-02T19:49:29.885Z,17.03
2018-10-02T19:52:14.622Z,17.50
2018-10-02T19:54:44.465Z,17.20
2018-10-02T19:57:16.005Z,16.20
2018-10-02T19:59:45.299Z,17.00
2018-10-02T20:02:14.676Z,22.13
2018-10-02T20:04:45.787Z,17.23
2018-10-02T20:07:15.179Z,20.33
2018-10-02T20:09:44.458Z,14.87
2018-10-02T20:12:14.154Z,16.17
2018-10-02T20:14:43.563Z,15.67
2018-10-02T20:17:13.070Z,21.97
2018-10-02T20:19:42.402Z,16.17
2018-10-02T20:22:12.125Z,19.23
2018-10-02T20:24:41.759Z,18.47
2018-10-02T20:27:11.048Z,17.07
2018-10-02T20:29:40.352Z,29.90
2018-10-02T20:32:09.320Z,20.73
2018-10-02T20:34:38.619Z,19.13
2018-10-02T20:37:08.328Z,17.67
2018-10-02T20:39:37.985Z,19.63
2018-10-02T20:42:07.509Z,22.20
2018-10-02T20:44:36.859Z,17.93
2018-10-02T20:47:06.198Z,26.07
2018-10-02T20:49:35.536Z,16.93
2018-10-02T20:52:04.964Z,18.63
2018-10-02T20:54:34.344Z,19.00
2018-10-02T20:57:03.593Z,21.87
2018-10-02T20:59:32.876Z,17.60
2018-10-02T21:02:02.201Z,24.67
2018-10-02T21:04:31.881Z,19.40
2018-10-02T21:07:03.197Z,16.30
2018-10-02T21:09:32.490Z,22.03
2018-10-02T21:12:01.773Z,19.87
2018-10-02T21:14:31.074Z,17.87
2018-10-02T21:17:00.353Z,25.40
2018-10-02T21:19:29.630Z,21.47
2018-10-02T21:21:58.956Z,20.60
2018-10-02T21:24:28.213Z,19.77
2018-10-02T21:26:57.443Z,21.70
2018-10-02T21:29:26.736Z,27.40
2018-10-02T21:31:56.066Z,48.97
2018-10-02T21:34:25.425Z,18.43
2018-10-02T21:36:54.729Z,22.60
2018-10-02T21:39:23.989Z,17.70
2018-10-02T21:41:53.341Z,21.60
2018-10-02T21:44:22.583Z,19.37
2018-10-02T21:46:51.869Z,21.10
2018-10-02T21:49:23.170Z,22.73
2018-10-02T21:51:52.584Z,18.27
2018-10-02T21:54:21.852Z,24.10
2018-10-02T21:56:51.106Z,20.90
2018-10-02T21:59:20.424Z,20.83
2018-10-02T22:01:49.716Z,21.07
2018-10-02T22:04:19.037Z,23.87
2018-10-02T22:06:48.347Z,20.27
2018-10-02T22:09:19.814Z,22.17
2018-10-02T22:11:49.101Z,21.80
2018-10-02T22:14:18.428Z,20.37
2018-10-02T22:16:47.708Z,16.93
2018-10-02T22:19:16.958Z,21.70
2018-10-02T22:21:46.286Z,21.07
2018-10-02T22:24:15.629Z,19.80
2018-10-02T22:26:44.881Z,21.57
2018-10-02T22:29:14.181Z,21.27
2018-10-02T22:31:43.549Z,23.43
2018-10-02T22:34:12.812Z,22.43
2018-10-02T22:36:42.101Z,21.40
2018-10-02T22:39:11.822Z,20.33
2018-10-02T22:41:41.189Z,21.03
2018-10-02T22:44:10.768Z,25.30
2018-10-02T22:46:40.105Z,20.27
2018-10-02T22:49:09.358Z,27.10
2018-10-02T22:51:40.757Z,24.80
2018-10-02T22:54:10.013Z,20.93
2018-10-02T22:56:39.311Z,18.50
2018-10-02T22:59:08.611Z,22.20
2018-10-02T23:01:37.946Z,21.63
2018-10-02T23:04:07.430Z,24.57
2018-10-02T23:06:36.725Z,24.30
2018-10-02T23:09:09.597Z,18.83
2018-10-02T23:11:38.884Z,20.03
2018-10-02T23:14:09.040Z,26.40
2018-10-02T23:16:38.403Z,21.87
2018-10-02T23:19:07.731Z,26.13
2018-10-02T23:21:38.968Z,19.27
2018-10-02T23:24:08.626Z,24.87
2018-10-02T23:26:37.884Z,22.00
2018-10-02T23:29:07.160Z,22.23
2018-10-02T23:31:36.425Z,19.37
2018-10-02T23:34:05.751Z,14.53
2018-10-02T23:36:35.057Z,26.33
2018-10-02T23:39:05.662Z,21.97
2018-10-02T23:41:34.971Z,21.53
2018-10-02T23:44:04.407Z,28.63
2018-10-02T23:46:33.689Z,27.43
2018-10-02T23:49:02.965Z,29.17
2018-10-02T23:51:32.222Z,25.47
2018-10-02T23:54:03.623Z,24.33
2018-10-02T23:56:33.101Z,24.57
2018-10-02T23:59:02.371Z,22.33
